sensor_id;sensor_type;location;lat;lon;timestamp;temperature;humidity
51739;DHT22;37815;52.692;6.226;2022-10-16T00:03:16;14.30;99.90
51739;DHT22;37815;52.692;6.226;2022-10-16T00:08:17;14.30;99.90
51739;DHT22;37815;52.692;6.226;2022-10-16T00:13:18;14.30;99.90
51739;DHT22;37815;52.692;6.226;2022-10-16T00:18:20;14.40;99.90
51739;DHT22;37815;52.692;6.226;2022-10-16T00:23:21;14.30;99.90
51739;DHT22;37815;52.692;6.226;2022-10-16T00:28:23;14.30;99.90
51739;DHT22;37815;52.692;6.226;2022-10-16T00:33:23;14.30;99.90
51739;DHT22;37815;52.692;6.226;2022-10-16T00:38:24;14.30;99.90
51739;DHT22;37815;52.692;6.226;2022-10-16T00:43:58;14.30;99.90
51739;DHT22;37815;52.692;6.226;2022-10-16T00:49:11;14.30;99.90
51739;DHT22;37815;52.692;6.226;2022-10-16T00:54:30;14.30;99.90
51739;DHT22;37815;52.692;6.226;2022-10-16T00:59:39;14.30;99.90
51739;DHT22;37815;52.692;6.226;2022-10-16T01:04:48;14.30;99.90
51739;DHT22;37815;52.692;6.226;2022-10-16T01:15:42;14.30;99.90
51739;DHT22;37815;52.692;6.226;2022-10-16T01:20:51;14.30;99.90
51739;DHT22;37815;52.692;6.226;2022-10-16T01:30:58;14.30;99.90
51739;DHT22;37815;52.692;6.226;2022-10-16T01:36:08;14.30;99.90
51739;DHT22;37815;52.692;6.226;2022-10-16T01:41:16;14.30;99.90
51739;DHT22;37815;52.692;6.226;2022-10-16T01:46:20;14.30;99.90
51739;DHT22;37815;52.692;6.226;2022-10-16T01:51:22;14.20;99.90
51739;DHT22;37815;52.692;6.226;2022-10-16T01:56:24;14.20;99.90
51739;DHT22;37815;52.692;6.226;2022-10-16T02:01:27;14.20;99.90
51739;DHT22;37815;52.692;6.226;2022-10-16T02:06:28;14.20;99.90
51739;DHT22;37815;52.692;6.226;2022-10-16T02:11:30;14.20;99.90
51739;DHT22;37815;52.692;6.226;2022-10-16T02:16:36;14.20;99.90
51739;DHT22;37815;52.692;6.226;2022-10-16T02:21:56;14.20;99.90
51739;DHT22;37815;52.692;6.226;2022-10-16T02:27:17;14.10;99.90
51739;DHT22;37815;52.692;6.226;2022-10-16T02:32:23;14.20;99.90
51739;DHT22;37815;52.692;6.226;2022-10-16T02:37:25;14.20;99.90
51739;DHT22;37815;52.692;6.226;2022-10-16T02:42:34;14.20;99.90
51739;DHT22;37815;52.692;6.226;2022-10-16T02:47:36;14.20;99.90
51739;DHT22;37815;52.692;6.226;2022-10-16T02:52:36;14.20;99.90
51739;DHT22;37815;52.692;6.226;2022-10-16T02:57:37;14.20;99.90
51739;DHT22;37815;52.692;6.226;2022-10-16T03:02:40;14.20;99.90
51739;DHT22;37815;52.692;6.226;2022-10-16T03:07:41;14.20;99.90
51739;DHT22;37815;52.692;6.226;2022-10-16T03:12:42;14.20;99.90
51739;DHT22;37815;52.692;6.226;2022-10-16T03:17:43;14.20;99.90
51739;DHT22;37815;52.692;6.226;2022-10-16T03:22:43;14.20;99.90
51739;DHT22;37815;52.692;6.226;2022-10-16T03:27:44;14.20;99.90
51739;DHT22;37815;52.692;6.226;2022-10-16T03:32:45;14.20;99.90
51739;DHT22;37815;52.692;6.226;2022-10-16T03:37:45;14.20;99.90
51739;DHT22;37815;52.692;6.226;2022-10-16T03:42:46;14.20;99.90
51739;DHT22;37815;52.692;6.226;2022-10-16T03:47:47;14.20;99.90
51739;DHT22;37815;52.692;6.226;2022-10-16T03:52:47;14.20;99.90
51739;DHT22;37815;52.692;6.226;2022-10-16T03:57:48;14.20;99.90
51739;DHT22;37815;52.692;6.226;2022-10-16T04:02:49;14.20;99.90
51739;DHT22;37815;52.692;6.226;2022-10-16T04:07:50;14.20;99.90
51739;DHT22;37815;52.692;6.226;2022-10-16T04:12:50;14.20;99.90
51739;DHT22;37815;52.692;6.226;2022-10-16T04:17:51;14.20;99.90
51739;DHT22;37815;52.692;6.226;2022-10-16T04:22:52;14.20;99.90
51739;DHT22;37815;52.692;6.226;2022-10-16T04:27:53;14.10;99.90
51739;DHT22;37815;52.692;6.226;2022-10-16T04:32:54;14.10;99.90
51739;DHT22;37815;52.692;6.226;2022-10-16T04:37:57;14.20;99.90
51739;DHT22;37815;52.692;6.226;2022-10-16T04:42:59;14.10;99.90
51739;DHT22;37815;52.692;6.226;2022-10-16T04:48:00;14.10;99.90
51739;DHT22;37815;52.692;6.226;2022-10-16T04:53:00;14.10;99.90
51739;DHT22;37815;52.692;6.226;2022-10-16T04:58:01;14.10;99.90
51739;DHT22;37815;52.692;6.226;2022-10-16T05:03:02;14.10;99.90
51739;DHT22;37815;52.692;6.226;2022-10-16T05:08:06;14.10;99.90
51739;DHT22;37815;52.692;6.226;2022-10-16T05:13:07;14.10;99.90
51739;DHT22;37815;52.692;6.226;2022-10-16T05:18:09;14.10;99.90
51739;DHT22;37815;52.692;6.226;2022-10-16T05:23:10;14.10;99.90
51739;DHT22;37815;52.692;6.226;2022-10-16T05:28:11;13.80;99.90
51739;DHT22;37815;52.692;6.226;2022-10-16T05:33:12;14.10;99.90
51739;DHT22;37815;52.692;6.226;2022-10-16T05:38:12;14.10;99.90
51739;DHT22;37815;52.692;6.226;2022-10-16T05:43:13;14.10;99.90
51739;DHT22;37815;52.692;6.226;2022-10-16T05:48:14;14.10;99.90
51739;DHT22;37815;52.692;6.226;2022-10-16T05:53:14;14.10;99.90
51739;DHT22;37815;52.692;6.226;2022-10-16T05:58:15;14.10;99.90
51739;DHT22;37815;52.692;6.226;2022-10-16T06:03:16;14.10;99.90
51739;DHT22;37815;52.692;6.226;2022-10-16T06:08:18;14.10;99.90
51739;DHT22;37815;52.692;6.226;2022-10-16T06:13:19;14.20;99.90
51739;DHT22;37815;52.692;6.226;2022-10-16T06:18:19;14.10;99.90
51739;DHT22;37815;52.692;6.226;2022-10-16T06:23:20;14.10;99.90
51739;DHT22;37815;52.692;6.226;2022-10-16T06:28:21;14.10;99.90
51739;DHT22;37815;52.692;6.226;2022-10-16T06:33:21;14.10;99.90
51739;DHT22;37815;52.692;6.226;2022-10-16T06:38:22;14.10;99.90
51739;DHT22;37815;52.692;6.226;2022-10-16T06:43:23;14.10;99.90
51739;DHT22;37815;52.692;6.226;2022-10-16T06:48:25;14.10;99.90
51739;DHT22;37815;52.692;6.226;2022-10-16T06:53:27;14.10;99.90
51739;DHT22;37815;52.692;6.226;2022-10-16T06:58:28;14.20;99.90
51739;DHT22;37815;52.692;6.226;2022-10-16T07:03:29;14.10;99.90
51739;DHT22;37815;52.692;6.226;2022-10-16T07:08:32;14.20;99.90
51739;DHT22;37815;52.692;6.226;2022-10-16T07:13:34;14.10;99.90
51739;DHT22;37815;52.692;6.226;2022-10-16T07:18:35;14.20;99.90
51739;DHT22;37815;52.692;6.226;2022-10-16T07:23:37;14.20;99.90
51739;DHT22;37815;52.692;6.226;2022-10-16T07:28:40;14.20;99.90
51739;DHT22;37815;52.692;6.226;2022-10-16T07:33:44;14.30;99.90
51739;DHT22;37815;52.692;6.226;2022-10-16T07:38:46;14.20;99.90
51739;DHT22;37815;52.692;6.226;2022-10-16T07:43:51;14.20;99.90
51739;DHT22;37815;52.692;6.226;2022-10-16T07:48:53;14.30;99.90
51739;DHT22;37815;52.692;6.226;2022-10-16T07:53:54;14.30;99.90
51739;DHT22;37815;52.692;6.226;2022-10-16T07:58:55;14.30;99.90
51739;DHT22;37815;52.692;6.226;2022-10-16T08:03:57;14.30;99.90
51739;DHT22;37815;52.692;6.226;2022-10-16T08:08:57;14.30;99.90
51739;DHT22;37815;52.692;6.226;2022-10-16T08:14:00;14.30;99.90
51739;DHT22;37815;52.692;6.226;2022-10-16T08:19:01;14.40;99.90
51739;DHT22;37815;52.692;6.226;2022-10-16T08:24:02;14.40;99.90
51739;DHT22;37815;52.692;6.226;2022-10-16T08:29:03;14.40;99.90
51739;DHT22;37815;52.692;6.226;2022-10-16T08:34:04;14.40;99.90
51739;DHT22;37815;52.692;6.226;2022-10-16T08:39:05;14.50;99.90
51739;DHT22;37815;52.692;6.226;2022-10-16T08:49:30;14.50;99.90
51739;DHT22;37815;52.692;6.226;2022-10-16T08:54:36;14.70;99.90
51739;DHT22;37815;52.692;6.226;2022-10-16T08:59:41;14.70;99.90
51739;DHT22;37815;52.692;6.226;2022-10-16T09:10:06;14.90;99.90
51739;DHT22;37815;52.692;6.226;2022-10-16T09:15:23;15.00;99.90
51739;DHT22;37815;52.692;6.226;2022-10-16T09:25:39;15.10;99.90
51739;DHT22;37815;52.692;6.226;2022-10-16T09:30:41;15.20;99.90
51739;DHT22;37815;52.692;6.226;2022-10-16T09:35:44;15.30;99.90
51739;DHT22;37815;52.692;6.226;2022-10-16T09:40:45;15.30;99.90
51739;DHT22;37815;52.692;6.226;2022-10-16T09:46:07;15.40;99.90
51739;DHT22;37815;52.692;6.226;2022-10-16T09:51:19;15.40;99.90
51739;DHT22;37815;52.692;6.226;2022-10-16T09:56:35;15.50;99.90
51739;DHT22;37815;52.692;6.226;2022-10-16T10:01:39;15.50;99.90
51739;DHT22;37815;52.692;6.226;2022-10-16T10:06:52;15.50;99.90
51739;DHT22;37815;52.692;6.226;2022-10-16T10:11:57;15.60;99.90
51739;DHT22;37815;52.692;6.226;2022-10-16T10:17:22;15.60;99.90
51739;DHT22;37815;52.692;6.226;2022-10-16T10:22:41;15.70;99.80
51739;DHT22;37815;52.692;6.226;2022-10-16T11:05:00;15.90;99.70
51739;DHT22;37815;52.692;6.226;2022-10-16T11:10:19;15.90;99.60
51739;DHT22;37815;52.692;6.226;2022-10-16T11:15:29;15.90;99.60
51739;DHT22;37815;52.692;6.226;2022-10-16T11:21:04;15.90;99.60
51739;DHT22;37815;52.692;6.226;2022-10-16T11:26:14;15.90;99.60
51739;DHT22;37815;52.692;6.226;2022-10-16T11:31:24;15.90;99.60
51739;DHT22;37815;52.692;6.226;2022-10-16T11:36:37;16.00;99.90
51739;DHT22;37815;52.692;6.226;2022-10-16T11:41:49;16.00;99.50
51739;DHT22;37815;52.692;6.226;2022-10-16T11:52:33;16.00;99.50
51739;DHT22;37815;52.692;6.226;2022-10-16T11:57:43;16.10;99.30
51739;DHT22;37815;52.692;6.226;2022-10-16T12:08:11;16.10;99.40
51739;DHT22;37815;52.692;6.226;2022-10-16T12:13:32;16.10;99.20
51739;DHT22;37815;52.692;6.226;2022-10-16T12:18:32;16.10;99.30
51739;DHT22;37815;52.692;6.226;2022-10-16T12:23:37;16.00;99.50
51739;DHT22;37815;52.692;6.226;2022-10-16T12:28:39;16.10;99.50
51739;DHT22;37815;52.692;6.226;2022-10-16T12:33:43;16.00;99.50
51739;DHT22;37815;52.692;6.226;2022-10-16T12:38:53;16.00;99.60
51739;DHT22;37815;52.692;6.226;2022-10-16T12:43:54;16.00;99.60
51739;DHT22;37815;52.692;6.226;2022-10-16T12:54:37;16.10;99.50
51739;DHT22;37815;52.692;6.226;2022-10-16T12:59:57;16.10;99.50
51739;DHT22;37815;52.692;6.226;2022-10-16T13:15:32;16.30;99.30
51739;DHT22;37815;52.692;6.226;2022-10-16T13:31:00;16.40;99.20
51739;DHT22;37815;52.692;6.226;2022-10-16T13:36:02;16.40;99.20
51739;DHT22;37815;52.692;6.226;2022-10-16T13:41:17;16.50;99.10
51739;DHT22;37815;52.692;6.226;2022-10-16T13:46:18;16.50;99.00
51739;DHT22;37815;52.692;6.226;2022-10-16T13:51:19;16.50;99.20
51739;DHT22;37815;52.692;6.226;2022-10-16T13:56:22;16.50;99.10
51739;DHT22;37815;52.692;6.226;2022-10-16T14:01:26;16.50;99.20
51739;DHT22;37815;52.692;6.226;2022-10-16T14:06:28;16.50;99.10
51739;DHT22;37815;52.692;6.226;2022-10-16T14:11:29;16.50;99.10
51739;DHT22;37815;52.692;6.226;2022-10-16T14:16:31;16.50;99.10
51739;DHT22;37815;52.692;6.226;2022-10-16T14:21:33;16.50;99.10
51739;DHT22;37815;52.692;6.226;2022-10-16T14:26:42;16.50;99.00
51739;DHT22;37815;52.692;6.226;2022-10-16T14:31:43;16.50;99.00
51739;DHT22;37815;52.692;6.226;2022-10-16T14:37:05;16.50;99.00
51739;DHT22;37815;52.692;6.226;2022-10-16T14:42:18;16.50;99.00
51739;DHT22;37815;52.692;6.226;2022-10-16T14:47:22;16.50;98.90
51739;DHT22;37815;52.692;6.226;2022-10-16T14:52:25;16.50;99.00
51739;DHT22;37815;52.692;6.226;2022-10-16T14:57:27;16.50;99.10
51739;DHT22;37815;52.692;6.226;2022-10-16T15:02:33;16.40;99.10
51739;DHT22;37815;52.692;6.226;2022-10-16T15:07:34;16.40;99.10
51739;DHT22;37815;52.692;6.226;2022-10-16T15:12:35;16.40;99.10
51739;DHT22;37815;52.692;6.226;2022-10-16T15:17:36;16.40;99.10
51739;DHT22;37815;52.692;6.226;2022-10-16T15:22:37;16.40;99.20
51739;DHT22;37815;52.692;6.226;2022-10-16T15:27:37;16.30;99.20
51739;DHT22;37815;52.692;6.226;2022-10-16T15:32:40;16.30;99.50
51739;DHT22;37815;52.692;6.226;2022-10-16T15:37:41;16.30;99.20
51739;DHT22;37815;52.692;6.226;2022-10-16T15:42:42;16.30;99.30
51739;DHT22;37815;52.692;6.226;2022-10-16T15:47:43;16.30;99.30
51739;DHT22;37815;52.692;6.226;2022-10-16T15:52:43;16.20;99.40
51739;DHT22;37815;52.692;6.226;2022-10-16T15:57:45;16.20;99.40
51739;DHT22;37815;52.692;6.226;2022-10-16T16:02:50;16.20;99.40
51739;DHT22;37815;52.692;6.226;2022-10-16T16:07:52;16.20;99.40
51739;DHT22;37815;52.692;6.226;2022-10-16T16:12:55;16.20;99.50
51739;DHT22;37815;52.692;6.226;2022-10-16T16:17:56;16.10;99.50
51739;DHT22;37815;52.692;6.226;2022-10-16T16:22:57;16.10;99.60
51739;DHT22;37815;52.692;6.226;2022-10-16T16:27:57;16.10;99.60
51739;DHT22;37815;52.692;6.226;2022-10-16T16:32:58;16.10;99.60
51739;DHT22;37815;52.692;6.226;2022-10-16T16:37:59;16.00;99.70
51739;DHT22;37815;52.692;6.226;2022-10-16T16:43:00;16.00;99.70
51739;DHT22;37815;52.692;6.226;2022-10-16T16:48:01;16.00;99.80
51739;DHT22;37815;52.692;6.226;2022-10-16T16:53:02;16.00;99.80
51739;DHT22;37815;52.692;6.226;2022-10-16T16:58:02;16.00;99.80
51739;DHT22;37815;52.692;6.226;2022-10-16T17:03:04;16.00;99.90
51739;DHT22;37815;52.692;6.226;2022-10-16T17:08:07;15.90;99.90
51739;DHT22;37815;52.692;6.226;2022-10-16T17:13:09;15.90;99.90
51739;DHT22;37815;52.692;6.226;2022-10-16T17:18:09;15.80;99.90
51739;DHT22;37815;52.692;6.226;2022-10-16T17:23:10;15.80;99.90
51739;DHT22;37815;52.692;6.226;2022-10-16T17:28:13;15.80;99.90
51739;DHT22;37815;52.692;6.226;2022-10-16T17:33:14;15.80;99.90
51739;DHT22;37815;52.692;6.226;2022-10-16T17:38:14;15.80;99.90
51739;DHT22;37815;52.692;6.226;2022-10-16T17:43:16;15.80;99.90
51739;DHT22;37815;52.692;6.226;2022-10-16T17:48:17;15.70;99.90
51739;DHT22;37815;52.692;6.226;2022-10-16T17:53:17;15.70;99.90
51739;DHT22;37815;52.692;6.226;2022-10-16T17:58:18;15.70;99.90
51739;DHT22;37815;52.692;6.226;2022-10-16T18:03:18;15.70;99.90
51739;DHT22;37815;52.692;6.226;2022-10-16T18:08:19;15.70;99.90
51739;DHT22;37815;52.692;6.226;2022-10-16T18:13:20;15.60;99.90
51739;DHT22;37815;52.692;6.226;2022-10-16T18:18:21;15.60;99.90
51739;DHT22;37815;52.692;6.226;2022-10-16T18:23:21;15.60;99.90
51739;DHT22;37815;52.692;6.226;2022-10-16T18:28:22;15.60;99.90
51739;DHT22;37815;52.692;6.226;2022-10-16T18:33:23;15.50;99.90
51739;DHT22;37815;52.692;6.226;2022-10-16T18:38:25;15.50;99.90
51739;DHT22;37815;52.692;6.226;2022-10-16T18:43:25;15.50;99.90
51739;DHT22;37815;52.692;6.226;2022-10-16T18:48:26;15.50;99.90
51739;DHT22;37815;52.692;6.226;2022-10-16T18:53:29;15.50;99.90
51739;DHT22;37815;52.692;6.226;2022-10-16T18:58:30;15.50;99.90
51739;DHT22;37815;52.692;6.226;2022-10-16T19:03:31;15.50;99.90
51739;DHT22;37815;52.692;6.226;2022-10-16T19:08:32;15.50;99.90
51739;DHT22;37815;52.692;6.226;2022-10-16T19:13:33;15.40;99.90
51739;DHT22;37815;52.692;6.226;2022-10-16T19:18:34;15.40;99.90
51739;DHT22;37815;52.692;6.226;2022-10-16T19:23:38;15.40;99.90
51739;DHT22;37815;52.692;6.226;2022-10-16T19:28:40;15.40;99.90
51739;DHT22;37815;52.692;6.226;2022-10-16T19:33:41;15.40;99.90
51739;DHT22;37815;52.692;6.226;2022-10-16T19:38:43;15.30;99.90
51739;DHT22;37815;52.692;6.226;2022-10-16T19:43:44;15.40;99.90
51739;DHT22;37815;52.692;6.226;2022-10-16T19:48:45;15.40;99.90
51739;DHT22;37815;52.692;6.226;2022-10-16T19:53:47;15.40;99.90
51739;DHT22;37815;52.692;6.226;2022-10-16T19:58:49;15.30;99.90
51739;DHT22;37815;52.692;6.226;2022-10-16T20:03:50;15.30;99.90
51739;DHT22;37815;52.692;6.226;2022-10-16T20:08:52;15.30;99.90
51739;DHT22;37815;52.692;6.226;2022-10-16T20:13:53;15.30;99.90
51739;DHT22;37815;52.692;6.226;2022-10-16T20:18:54;15.30;99.90
51739;DHT22;37815;52.692;6.226;2022-10-16T20:23:55;15.30;99.90
51739;DHT22;37815;52.692;6.226;2022-10-16T20:28:56;15.20;99.90
51739;DHT22;37815;52.692;6.226;2022-10-16T20:34:01;15.20;99.90
51739;DHT22;37815;52.692;6.226;2022-10-16T20:39:04;15.20;99.90
51739;DHT22;37815;52.692;6.226;2022-10-16T20:44:05;15.20;99.90
51739;DHT22;37815;52.692;6.226;2022-10-16T20:49:05;15.20;99.90
51739;DHT22;37815;52.692;6.226;2022-10-16T20:54:10;15.20;99.90
51739;DHT22;37815;52.692;6.226;2022-10-16T20:59:11;15.20;99.90
51739;DHT22;37815;52.692;6.226;2022-10-16T21:04:12;15.20;99.90
51739;DHT22;37815;52.692;6.226;2022-10-16T21:09:13;15.20;99.90
51739;DHT22;37815;52.692;6.226;2022-10-16T21:14:14;15.20;99.90
51739;DHT22;37815;52.692;6.226;2022-10-16T21:19:14;15.20;99.90
51739;DHT22;37815;52.692;6.226;2022-10-16T21:24:15;15.10;99.90
51739;DHT22;37815;52.692;6.226;2022-10-16T21:29:17;15.10;99.90
51739;DHT22;37815;52.692;6.226;2022-10-16T21:34:18;15.10;99.90
51739;DHT22;37815;52.692;6.226;2022-10-16T21:39:20;15.10;99.90
51739;DHT22;37815;52.692;6.226;2022-10-16T21:44:20;15.10;99.90
51739;DHT22;37815;52.692;6.226;2022-10-16T21:49:21;15.10;99.90
51739;DHT22;37815;52.692;6.226;2022-10-16T21:54:22;15.10;99.80
51739;DHT22;37815;52.692;6.226;2022-10-16T21:59:23;15.10;99.80
51739;DHT22;37815;52.692;6.226;2022-10-16T22:04:24;15.10;99.80
51739;DHT22;37815;52.692;6.226;2022-10-16T22:09:24;15.10;99.80
51739;DHT22;37815;52.692;6.226;2022-10-16T22:14:25;15.10;99.80
51739;DHT22;37815;52.692;6.226;2022-10-16T22:19:26;15.00;99.80
51739;DHT22;37815;52.692;6.226;2022-10-16T22:24:27;15.10;99.80
51739;DHT22;37815;52.692;6.226;2022-10-16T22:29:28;15.10;99.80
51739;DHT22;37815;52.692;6.226;2022-10-16T22:34:28;15.10;99.80
51739;DHT22;37815;52.692;6.226;2022-10-16T22:39:29;15.00;99.80
51739;DHT22;37815;52.692;6.226;2022-10-16T22:44:30;15.00;99.80
51739;DHT22;37815;52.692;6.226;2022-10-16T22:49:30;15.00;99.80
51739;DHT22;37815;52.692;6.226;2022-10-16T22:54:31;15.00;99.80
51739;DHT22;37815;52.692;6.226;2022-10-16T22:59:32;15.00;99.80
51739;DHT22;37815;52.692;6.226;2022-10-16T23:04:33;15.00;99.80
51739;DHT22;37815;52.692;6.226;2022-10-16T23:09:33;15.00;99.80
51739;DHT22;37815;52.692;6.226;2022-10-16T23:14:34;15.00;99.80
51739;DHT22;37815;52.692;6.226;2022-10-16T23:19:35;15.00;99.80
51739;DHT22;37815;52.692;6.226;2022-10-16T23:24:36;15.00;99.80
51739;DHT22;37815;52.692;6.226;2022-10-16T23:29:37;15.00;99.80
51739;DHT22;37815;52.692;6.226;2022-10-16T23:34:38;15.00;99.80
51739;DHT22;37815;52.692;6.226;2022-10-16T23:39:38;15.00;99.80
51739;DHT22;37815;52.692;6.226;2022-10-16T23:44:39;15.00;99.80
51739;DHT22;37815;52.692;6.226;2022-10-16T23:49:40;15.00;99.80
51739;DHT22;37815;52.692;6.226;2022-10-16T23:54:40;15.00;99.80
51739;DHT22;37815;52.692;6.226;2022-10-16T23:59:41;15.00;99.80
